Time;durP1;ratioP1;P1;durP2;ratioP2;P2;SDS_P1;SDS_P2;PMS_P1;PMS_P2;Temp;Humidity;BMP_temperature;BMP_pressure;BME280_temperature;BME280_humidity;BME280_pressure;Samples;Min_cycle;Max_cycle;Signal;HPM_P1;HPM_P2
2022/03/26 00:00:09;;;;;;;38.53;16.67;;;7.20;89.60;;;;;;4891801;29;20600;-85
2022/03/26 00:02:35;;;;;;;41.55;16.98;;;7.20;91.40;;;;;;4892180;29;20058;-85
2022/03/26 00:05:01;;;;;;;38.45;17.23;;;7.20;92.40;;;;;;4887563;29;20044;-83
2022/03/26 00:07:27;;;;;;;37.88;16.75;;;7.20;93.70;;;;;;4886661;29;20052;-85
2022/03/26 00:09:53;;;;;;;37.67;15.75;;;7.10;95.30;;;;;;4896884;29;20117;-85
2022/03/26 00:12:19;;;;;;;37.40;16.27;;;7.10;96.20;;;;;;4906825;29;20063;-85
2022/03/26 00:14:44;;;;;;;33.63;16.35;;;7.00;97.20;;;;;;4905206;29;20079;-85
2022/03/26 00:17:10;;;;;;;43.95;19.27;;;6.90;98.30;;;;;;4911215;29;20127;-84
2022/03/26 00:19:36;;;;;;;44.13;19.52;;;6.80;98.80;;;;;;4902109;29;20048;-85
2022/03/26 00:22:02;;;;;;;44.80;19.27;;;6.70;98.40;;;;;;4897308;29;20155;-82
2022/03/26 00:24:27;;;;;;;;;;;6.70;98.20;;;;;;4915148;29;20134;-85
2022/03/26 00:26:53;;;;;;;37.88;16.73;;;6.70;98.80;;;;;;4896798;29;20027;-85
2022/03/26 00:29:19;;;;;;;38.47;17.23;;;6.70;97.70;;;;;;4898731;29;20135;-85
2022/03/26 00:31:45;;;;;;;37.85;16.98;;;6.90;97.70;;;;;;4876501;29;20495;-85
2022/03/26 00:34:11;;;;;;;42.33;19.40;;;6.60;97.80;;;;;;4882951;29;20055;-85
2022/03/26 00:36:37;;;;;;;42.00;19.95;;;6.40;98.20;;;;;;4894732;29;20063;-85
2022/03/26 00:39:03;;;;;;;43.58;19.80;;;6.40;98.50;;;;;;4890325;29;20068;-82
2022/03/26 00:41:29;;;;;;;40.05;18.67;;;6.40;98.30;;;;;;4897207;29;20064;-85
2022/03/26 00:43:56;;;;;;;43.70;19.05;;;6.40;98.20;;;;;;4896380;29;20104;-84
2022/03/26 00:46:22;;;;;;;38.75;17.75;;;6.30;98.40;;;;;;4896808;29;20040;-85
2022/03/26 00:48:48;;;;;;;43.25;19.48;;;6.30;98.50;;;;;;4881451;29;20048;-85
2022/03/26 00:51:17;;;;;;;42.35;18.35;;;6.30;98.40;;;;;;4896803;29;20052;-85
2022/03/26 00:53:46;;;;;;;41.17;17.92;;;6.30;99.00;;;;;;4883610;29;20041;-85
2022/03/26 00:56:12;;;;;;;43.35;19.02;;;6.20;99.70;;;;;;4915315;29;20134;-85
2022/03/26 00:58:39;;;;;;;39.65;18.73;;;6.20;99.90;;;;;;4904056;29;20554;-84
2022/03/26 01:01:05;;;;;;;41.63;18.20;;;6.10;99.90;;;;;;4897098;29;20056;-83
2022/03/26 01:03:30;;;;;;;44.10;20.08;;;6.10;99.90;;;;;;4891873;29;20059;-85
2022/03/26 01:05:56;;;;;;;45.85;20.02;;;6.10;99.90;;;;;;4900349;29;20059;-85
2022/03/26 01:08:22;;;;;;;46.97;19.80;;;6.10;99.90;;;;;;4904123;29;20064;-85
2022/03/26 01:10:48;;;;;;;44.50;20.67;;;6.00;99.70;;;;;;4896772;29;20048;-85
2022/03/26 01:13:14;;;;;;;45.00;19.95;;;6.00;99.60;;;;;;4897540;29;20056;-85
2022/03/26 01:15:40;;;;;;;;;;;5.90;99.60;;;;;;4900695;29;20443;-85
2022/03/26 01:18:06;;;;;;;46.22;20.58;;;6.20;99.90;;;;;;4896342;29;20023;-83
2022/03/26 01:20:33;;;;;;;41.95;19.27;;;5.90;99.30;;;;;;4912311;29;20088;-85
2022/03/26 01:22:59;;;;;;;45.17;19.83;;;5.80;99.60;;;;;;4880060;29;20048;-84
2022/03/26 01:25:25;;;;;;;47.05;20.45;;;5.80;99.90;;;;;;4880541;29;20083;-84
2022/03/26 01:27:51;;;;;;;41.45;18.98;;;5.80;99.90;;;;;;4898834;29;20044;-85
2022/03/26 01:30:17;;;;;;;50.90;21.38;;;5.80;99.90;;;;;;4899392;29;20401;-84
2022/03/26 01:32:46;;;;;;;;;;;5.70;99.90;;;;;;4898680;29;20064;-85
2022/03/26 01:35:13;;;;;;;42.05;17.58;;;6.00;99.90;;;;;;4895659;29;19991;-85
2022/03/26 01:37:39;;;;;;;38.67;17.90;;;5.70;99.90;;;;;;4905725;29;20104;-85
2022/03/26 01:40:06;;;;;;;36.20;17.08;;;5.70;99.90;;;;;;4906414;29;20147;-85
2022/03/26 01:42:32;;;;;;;38.25;17.83;;;5.70;99.90;;;;;;4870072;29;20132;-85
2022/03/26 01:44:58;;;;;;;40.17;17.65;;;5.70;99.90;;;;;;4896506;29;20057;-85
2022/03/26 01:47:24;;;;;;;38.22;17.33;;;5.80;99.90;;;;;;4897816;29;20056;-84
2022/03/26 01:49:53;;;;;;;43.63;18.67;;;5.60;99.90;;;;;;4896339;29;20048;-85
2022/03/26 01:52:19;;;;;;;37.90;17.00;;;5.70;99.90;;;;;;4891454;29;20061;-85
2022/03/26 01:54:45;;;;;;;42.78;19.05;;;5.50;99.90;;;;;;4895735;29;20483;-84
2022/03/26 01:57:11;;;;;;;41.45;18.60;;;5.60;99.90;;;;;;4894415;29;20052;-85
2022/03/26 01:59:41;;;;;;;54.63;18.42;;;5.50;99.90;;;;;;4849933;29;20048;-85
2022/03/26 02:02:07;;;;;;;46.35;17.75;;;5.60;99.90;;;;;;4880688;29;20040;-85
2022/03/26 02:04:35;;;;;;;45.92;18.42;;;5.70;99.90;;;;;;4895062;29;20059;-85
2022/03/26 02:07:05;;;;;;;41.83;18.88;;;5.70;99.90;;;;;;4902300;29;20486;-85
2022/03/26 02:09:35;;;;;;;43.72;18.67;;;5.50;99.90;;;;;;4914194;29;20063;-84
2022/03/26 02:12:22;;;;;;;43.10;19.55;;;5.40;99.90;;;;;;4892570;29;20101;-85
2022/03/26 02:14:48;;;;;;;46.92;18.98;;;5.40;99.90;;;;;;4892418;29;20502;-86
2022/03/26 02:17:13;;;;;;;43.80;18.65;;;5.30;99.90;;;;;;4908003;29;20187;-85
2022/03/26 02:19:39;;;;;;;51.20;20.45;;;5.30;99.90;;;;;;4903795;29;20047;-85
2022/03/26 02:22:05;;;;;;;42.47;18.20;;;5.20;99.90;;;;;;4898477;29;20067;-85
2022/03/26 02:24:31;;;;;;;;;;;5.30;99.90;;;;;;4914196;29;20052;-85
2022/03/26 02:26:57;;;;;;;45.42;17.50;;;5.20;99.90;;;;;;4913098;29;19926;-85
2022/03/26 02:29:22;;;;;;;45.00;19.63;;;5.10;99.90;;;;;;4914045;29;20058;-85
2022/03/26 02:31:48;;;;;;;47.65;19.73;;;5.30;99.90;;;;;;4914608;29;20103;-84
2022/03/26 02:34:14;;;;;;;43.33;18.40;;;5.40;99.90;;;;;;4897443;29;20431;-83
2022/03/26 02:36:39;;;;;;;50.05;19.10;;;5.10;99.90;;;;;;4898741;29;20052;-85
2022/03/26 02:39:05;;;;;;;44.53;19.77;;;5.00;99.90;;;;;;4897500;29;20056;-84
2022/03/26 02:41:34;;;;;;;45.17;18.90;;;5.00;99.90;;;;;;4905309;29;20056;-85
2022/03/26 02:44:00;;;;;;;51.38;19.90;;;5.20;99.90;;;;;;4889233;29;20060;-85
2022/03/26 02:46:25;;;;;;;43.80;20.20;;;4.90;99.90;;;;;;4897014;29;20056;-86
2022/03/26 02:48:51;;;;;;;43.92;19.98;;;4.90;99.90;;;;;;4894857;29;20513;-86
2022/03/26 02:51:17;;;;;;;45.58;19.73;;;4.80;99.90;;;;;;4878884;29;20092;-87
2022/03/26 02:53:43;;;;;;;37.63;16.55;;;4.80;99.90;;;;;;4895010;29;20053;-85
2022/03/26 02:56:09;;;;;;;40.67;16.73;;;4.90;99.90;;;;;;4894788;29;20053;-86
2022/03/26 02:58:34;;;;;;;;;;;4.80;99.90;;;;;;4903346;29;20048;-86
2022/03/26 03:01:00;;;;;;;43.85;16.88;;;4.80;99.90;;;;;;4895397;29;19930;-86
2022/03/26 03:03:26;;;;;;;46.22;17.15;;;5.20;99.90;;;;;;4894056;29;20052;-86
2022/03/26 03:05:52;;;;;;;43.50;17.05;;;4.70;99.90;;;;;;4898929;29;20044;-87
2022/03/26 03:08:18;;;;;;;45.25;18.17;;;5.00;99.90;;;;;;4894242;29;20516;-85
2022/03/26 03:10:44;;;;;;;38.28;16.20;;;4.70;99.90;;;;;;4894711;29;20376;-86
2022/03/26 03:13:10;;;;;;;;;;;4.70;99.90;;;;;;4891724;29;20111;-86
2022/03/26 03:15:37;;;;;;;40.10;17.70;;;4.70;99.90;;;;;;4897601;29;19922;-87
2022/03/26 03:18:02;;;;;;;45.22;18.63;;;4.50;99.90;;;;;;4897623;29;20100;-86
2022/03/26 03:20:29;;;;;;;42.05;18.73;;;4.50;99.90;;;;;;4913221;29;20128;-86
2022/03/26 03:22:57;;;;;;;45.33;19.40;;;4.40;99.90;;;;;;4898122;29;20114;-86
2022/03/26 03:25:25;;;;;;;48.40;19.38;;;4.40;99.90;;;;;;4912104;29;20060;-84
2022/03/26 03:27:51;;;;;;;48.20;19.88;;;5.00;99.90;;;;;;4879891;29;20055;-85
2022/03/26 03:30:17;;;;;;;43.65;18.50;;;4.40;99.90;;;;;;4892126;29;20056;-83
2022/03/26 03:32:44;;;;;;;42.58;17.48;;;4.40;99.90;;;;;;4893468;29;20139;-86
2022/03/26 03:35:09;;;;;;;42.08;16.67;;;4.70;99.90;;;;;;4878509;29;20048;-86
2022/03/26 03:37:37;;;;;;;38.33;15.73;;;4.30;99.90;;;;;;4878196;29;20067;-85
2022/03/26 03:40:04;;;;;;;36.75;15.88;;;4.20;99.90;;;;;;4894292;29;20056;-86
2022/03/26 03:42:30;;;;;;;40.55;18.38;;;4.20;99.90;;;;;;4893055;29;20044;-86
2022/03/26 03:44:56;;;;;;;38.90;17.25;;;4.20;99.90;;;;;;4879519;29;20052;-84
2022/03/26 03:47:21;;;;;;;50.13;18.92;;;4.10;99.90;;;;;;4882685;29;20062;-84
2022/03/26 03:49:47;;;;;;;42.78;17.90;;;4.10;99.90;;;;;;4882779;29;20056;-87
2022/03/26 03:52:14;;;;;;;45.45;18.65;;;4.20;99.90;;;;;;4867565;29;20488;-85
2022/03/26 03:54:39;;;;;;;43.55;18.27;;;4.10;99.90;;;;;;4897647;29;20044;-84
2022/03/26 03:57:05;;;;;;;49.13;20.27;;;4.10;99.90;;;;;;4913572;29;20088;-85
2022/03/26 03:59:31;;;;;;;51.15;20.67;;;4.10;99.90;;;;;;4898030;29;20098;-85
2022/03/26 04:01:57;;;;;;;46.53;19.35;;;4.10;99.90;;;;;;4898214;29;20052;-85
2022/03/26 04:04:22;;;;;;;48.17;20.10;;;4.20;99.90;;;;;;4915861;29;20052;-82
2022/03/26 04:06:48;;;;;;;49.65;20.45;;;4.30;99.90;;;;;;4916992;29;20138;-85
2022/03/26 04:09:14;;;;;;;53.03;20.30;;;4.10;99.90;;;;;;4909859;29;20407;-84
2022/03/26 04:11:40;;;;;;;46.38;20.40;;;4.10;99.90;;;;;;4881537;29;20399;-84
2022/03/26 04:14:06;;;;;;;52.25;20.23;;;4.10;99.90;;;;;;4870753;29;20044;-85
2022/03/26 04:16:32;;;;;;;45.97;20.10;;;4.10;99.90;;;;;;4874995;29;20790;-85
2022/03/26 04:18:58;;;;;;;47.45;19.60;;;4.00;99.90;;;;;;4882112;29;20110;-85
2022/03/26 04:21:24;;;;;;;42.97;19.10;;;4.00;99.90;;;;;;4899200;29;20561;-83
2022/03/26 04:23:50;;;;;;;46.28;19.08;;;4.00;99.90;;;;;;4900690;29;20040;-85
2022/03/26 04:26:16;;;;;;;46.22;18.90;;;4.20;99.90;;;;;;4916383;29;20058;-84
2022/03/26 04:28:41;;;;;;;51.90;22.85;;;3.90;99.90;;;;;;4912932;29;20044;-85
2022/03/26 04:31:08;;;;;;;47.70;20.77;;;4.10;99.90;;;;;;4898010;29;20060;-84
2022/03/26 04:33:34;;;;;;;54.03;20.80;;;3.90;99.90;;;;;;4897729;29;20131;-85
2022/03/26 04:35:59;;;;;;;50.25;20.92;;;3.90;99.90;;;;;;4913128;29;20136;-85
2022/03/26 04:38:25;;;;;;;58.90;23.05;;;3.90;99.90;;;;;;4872929;29;20057;-82
2022/03/26 04:40:51;;;;;;;54.53;20.85;;;3.90;99.90;;;;;;4881912;29;20562;-85
2022/03/26 04:43:18;;;;;;;58.97;21.65;;;4.40;99.90;;;;;;4896646;29;20091;-84
2022/03/26 04:45:44;;;;;;;51.28;20.75;;;4.00;99.90;;;;;;4897002;29;20123;-85
2022/03/26 04:48:10;;;;;;;;;;;4.00;99.90;;;;;;4896389;29;20052;-85
2022/03/26 04:50:36;;;;;;;50.03;18.45;;;4.00;99.90;;;;;;4898067;29;19927;-85
2022/03/26 04:53:03;;;;;;;53.63;20.17;;;3.90;99.90;;;;;;4914890;29;20067;-85
2022/03/26 04:55:29;;;;;;;55.17;21.27;;;4.30;99.90;;;;;;4898602;29;20140;-84
2022/03/26 04:57:55;;;;;;;52.17;22.38;;;3.90;99.90;;;;;;4867638;29;20092;-85
2022/03/26 05:00:22;;;;;;;62.30;22.55;;;3.90;99.90;;;;;;4897296;29;20514;-85
2022/03/26 05:02:48;;;;;;;57.45;22.35;;;3.80;99.90;;;;;;4895980;29;20837;-85
2022/03/26 05:05:15;;;;;;;;;;;4.00;99.90;;;;;;4897394;29;20052;-85
2022/03/26 05:07:46;;;;;;;58.13;23.90;;;3.70;99.90;;;;;;4896577;29;19923;-85
2022/03/26 05:10:18;;;;;;;64.10;24.15;;;3.70;99.90;;;;;;4908821;29;20518;-85
2022/03/26 05:12:44;;;;;;;57.13;22.13;;;3.70;99.90;;;;;;4914505;29;20482;-84
2022/03/26 05:15:11;;;;;;;81.57;30.85;;;3.70;99.90;;;;;;4915638;29;20457;-85
2022/03/26 05:17:37;;;;;;;;;;;4.00;99.90;;;;;;4915179;29;20146;-85
2022/03/26 05:20:04;;;;;;;83.95;31.17;;;3.60;99.90;;;;;;4915616;29;19923;-85
2022/03/26 05:22:30;;;;;;;86.53;32.30;;;3.60;99.90;;;;;;4899643;29;20056;-82
2022/03/26 05:24:56;;;;;;;;;;;3.90;99.90;;;;;;4916199;29;20052;-85
2022/03/26 05:27:21;;;;;;;88.45;33.10;;;3.60;99.90;;;;;;4912531;29;20399;-85
2022/03/26 05:29:49;;;;;;;87.68;31.25;;;3.60;99.90;;;;;;4880862;29;20053;-85
2022/03/26 05:32:15;;;;;;;72.68;29.65;;;4.00;99.90;;;;;;4881477;29;20062;-85
2022/03/26 05:34:42;;;;;;;77.25;29.17;;;3.80;99.90;;;;;;4879946;29;20414;-85
2022/03/26 05:37:08;;;;;;;72.95;29.55;;;4.00;99.90;;;;;;4891834;29;20059;-85
2022/03/26 05:39:34;;;;;;;61.88;25.10;;;3.50;99.90;;;;;;4914432;29;20172;-84
2022/03/26 05:42:00;;;;;;;61.10;24.48;;;3.50;99.90;;;;;;4914064;29;20063;-85
2022/03/26 05:44:25;;;;;;;55.80;23.38;;;3.50;99.90;;;;;;4915516;29;20107;-85
2022/03/26 05:46:51;;;;;;;57.85;23.98;;;3.40;99.90;;;;;;4899237;29;20106;-85
2022/03/26 05:49:17;;;;;;;60.33;24.17;;;3.40;99.90;;;;;;4899193;29;20044;-85
2022/03/26 05:51:44;;;;;;;61.45;24.70;;;3.60;99.90;;;;;;4909484;29;20135;-85
2022/03/26 05:54:10;;;;;;;58.65;23.40;;;3.30;99.90;;;;;;4895970;29;20060;-85
2022/03/26 05:56:38;;;;;;;68.53;26.42;;;3.30;99.90;;;;;;4895245;29;20059;-85
2022/03/26 05:59:10;;;;;;;69.35;28.23;;;3.30;99.90;;;;;;4895585;29;20048;-85
2022/03/26 06:01:36;;;;;;;77.35;31.30;;;3.40;99.90;;;;;;4889776;29;20078;-84
2022/03/26 06:04:02;;;;;;;78.63;31.92;;;3.50;99.90;;;;;;4881823;29;20049;-85
2022/03/26 06:06:28;;;;;;;95.85;35.63;;;3.50;99.90;;;;;;4895928;29;20059;-85
2022/03/26 06:08:54;;;;;;;96.50;36.28;;;3.70;99.90;;;;;;4883732;29;20048;-85
2022/03/26 06:11:20;;;;;;;96.88;35.25;;;3.60;99.90;;;;;;4914689;29;20048;-85
2022/03/26 06:13:46;;;;;;;83.78;34.00;;;3.60;99.90;;;;;;4913220;29;20503;-85
2022/03/26 06:16:13;;;;;;;80.43;32.20;;;3.70;99.90;;;;;;4899219;29;20048;-86
2022/03/26 06:18:39;;;;;;;86.72;31.70;;;4.00;99.90;;;;;;4913348;29;20501;-87
2022/03/26 06:21:05;;;;;;;85.53;32.65;;;3.70;99.90;;;;;;4899061;29;20088;-87
2022/03/26 06:23:32;;;;;;;81.50;32.45;;;3.80;99.90;;;;;;4912347;29;20052;-87
2022/03/26 06:25:58;;;;;;;85.18;32.58;;;4.70;99.90;;;;;;4913648;29;20055;-87
2022/03/26 06:28:23;;;;;;;89.95;34.45;;;4.00;99.90;;;;;;4896649;29;20044;-87
2022/03/26 06:30:50;;;;;;;87.63;33.00;;;3.90;99.90;;;;;;4895222;29;20095;-87
2022/03/26 06:33:16;;;;;;;87.88;34.83;;;4.30;99.90;;;;;;4895158;29;20403;-86
2022/03/26 06:35:43;;;;;;;99.53;35.33;;;3.90;99.90;;;;;;4864191;29;20048;-87
2022/03/26 06:38:09;;;;;;;98.40;36.08;;;4.00;99.90;;;;;;4888456;29;20067;-86
2022/03/26 06:40:37;;;;;;;100.05;37.08;;;4.10;99.90;;;;;;4895035;29;20155;-87
2022/03/26 06:43:04;;;;;;;99.03;38.28;;;4.20;99.90;;;;;;4878826;29;20064;-87
2022/03/26 06:45:30;;;;;;;114.15;42.67;;;4.20;99.90;;;;;;4895456;29;20069;-87
2022/03/26 06:47:56;;;;;;;124.55;44.42;;;4.30;99.90;;;;;;4879006;29;20555;-88
2022/03/26 06:50:21;;;;;;;130.77;45.50;;;4.40;99.90;;;;;;4880249;29;20052;-85
2022/03/26 06:52:48;;;;;;;136.90;46.80;;;4.70;99.90;;;;;;4900755;29;20053;-85
2022/03/26 06:55:13;;;;;;;;;;;4.70;99.90;;;;;;4894906;29;20491;-84
2022/03/26 06:57:41;;;;;;;143.25;46.63;;;4.70;99.90;;;;;;4897074;29;19935;-84
2022/03/26 07:00:09;;;;;;;124.45;46.20;;;4.80;99.90;;;;;;4898498;29;20096;-87
2022/03/26 07:02:38;;;;;;;133.55;47.75;;;4.90;99.90;;;;;;4913487;29;20044;-84
2022/03/26 07:05:05;;;;;;;115.60;43.33;;;5.00;99.90;;;;;;4897900;29;20072;-85
2022/03/26 07:07:30;;;;;;;123.43;46.38;;;5.10;99.90;;;;;;4913782;29;20059;-86
2022/03/26 07:09:57;;;;;;;132.05;46.13;;;5.10;99.90;;;;;;4897359;29;20060;-85
2022/03/26 07:12:23;;;;;;;132.88;48.47;;;5.20;99.90;;;;;;4912318;29;20063;-85
2022/03/26 07:14:49;;;;;;;127.35;44.30;;;5.60;99.90;;;;;;4897565;29;20059;-86
2022/03/26 07:17:17;;;;;;;137.25;46.17;;;5.40;99.90;;;;;;4894699;29;20081;-85
2022/03/26 07:19:43;;;;;;;128.55;46.55;;;5.40;99.90;;;;;;4862207;29;20505;-85
2022/03/26 07:22:09;;;;;;;124.68;45.25;;;5.50;99.90;;;;;;4900357;29;20040;-85
2022/03/26 07:24:35;;;;;;;129.90;47.55;;;5.60;99.90;;;;;;4895280;29;20048;-85
2022/03/26 07:27:00;;;;;;;126.75;44.35;;;5.70;99.90;;;;;;4889202;29;20052;-86
2022/03/26 07:29:26;;;;;;;118.75;44.63;;;5.80;99.90;;;;;;4898069;29;20055;-85
2022/03/26 07:31:52;;;;;;;123.75;46.50;;;5.90;99.90;;;;;;4913246;29;20048;-85
2022/03/26 07:34:19;;;;;;;124.22;47.42;;;5.90;99.90;;;;;;4911915;29;20051;-85
2022/03/26 07:36:45;;;;;;;121.63;44.33;;;6.10;99.90;;;;;;4880603;29;20053;-86
2022/03/26 07:39:12;;;;;;;121.40;47.00;;;6.20;99.90;;;;;;4912388;29;20052;-85
2022/03/26 07:41:38;;;;;;;121.22;45.47;;;6.30;99.90;;;;;;4912908;29;20513;-86
2022/03/26 07:44:04;;;;;;;115.78;44.20;;;6.40;99.90;;;;;;4881324;29;20451;-85
2022/03/26 07:46:30;;;;;;;122.03;44.95;;;6.50;99.90;;;;;;4913674;29;20048;-85
2022/03/26 07:48:56;;;;;;;115.28;41.78;;;6.60;99.90;;;;;;4897072;29;20070;-84
2022/03/26 07:51:22;;;;;;;110.70;41.90;;;6.90;99.90;;;;;;4897997;29;20187;-84
2022/03/26 07:53:47;;;;;;;113.88;42.33;;;6.80;99.90;;;;;;4896922;29;20053;-85
2022/03/26 07:56:13;;;;;;;112.97;42.38;;;7.00;99.90;;;;;;4881393;29;20052;-84
2022/03/26 07:58:39;;;;;;;114.68;42.78;;;7.10;99.90;;;;;;4897128;29;20108;-84
2022/03/26 08:01:06;;;;;;;116.30;43.25;;;7.20;99.90;;;;;;4912988;29;20051;-82
2022/03/26 08:03:33;;;;;;;117.15;43.38;;;7.40;99.90;;;;;;4912327;29;20131;-83
2022/03/26 08:05:58;;;;;;;;;;;7.50;99.90;;;;;;4906621;29;20048;-84
2022/03/26 08:08:25;;;;;;;116.05;41.00;;;7.60;99.90;;;;;;4912786;29;19930;-85
2022/03/26 08:10:50;;;;;;;102.88;41.30;;;7.70;99.90;;;;;;4912506;29;20088;-84
2022/03/26 08:13:17;;;;;;;109.22;42.03;;;7.80;99.90;;;;;;4901716;29;20132;-84
2022/03/26 08:15:43;;;;;;;109.38;41.15;;;8.00;99.90;;;;;;4890883;29;20055;-84
2022/03/26 08:18:09;;;;;;;94.72;37.30;;;8.00;99.90;;;;;;4897507;29;20112;-84
2022/03/26 08:20:35;;;;;;;101.35;39.45;;;8.20;99.90;;;;;;4894401;29;20044;-85
2022/03/26 08:23:00;;;;;;;94.97;38.45;;;8.60;99.90;;;;;;4893320;29;20131;-86
2022/03/26 08:28:11;;;;;;;90.50;35.03;;;8.60;99.90;;;;;;4911696;29;20052;-85
2022/03/26 08:30:38;;;;;;;84.72;36.13;;;8.80;99.90;;;;;;4888024;29;20048;-85
2022/03/26 08:33:04;;;;;;;79.68;33.28;;;9.00;99.90;;;;;;4896573;29;20139;-85
2022/03/26 08:35:34;;;;;;;79.00;32.08;;;9.10;99.90;;;;;;4866398;29;20052;-82
2022/03/26 08:38:01;;;;;;;71.72;30.23;;;9.30;99.90;;;;;;4898665;29;20096;-82
2022/03/26 08:40:27;;;;;;;77.07;30.05;;;9.50;99.90;;;;;;4899391;29;20648;-84
2022/03/26 08:42:53;;;;;;;78.68;31.10;;;9.70;99.90;;;;;;4914437;29;20085;-84
2022/03/26 08:45:19;;;;;;;87.75;34.50;;;9.80;99.90;;;;;;4916535;29;20099;-84
2022/03/26 08:47:45;;;;;;;77.70;32.95;;;9.90;99.90;;;;;;4900233;29;20048;-84
2022/03/26 08:50:12;;;;;;;86.18;34.58;;;10.00;99.90;;;;;;4909448;29;20060;-84
2022/03/26 08:52:37;;;;;;;76.95;33.30;;;10.10;99.90;;;;;;4900530;29;20155;-83
2022/03/26 08:55:04;;;;;;;71.32;30.15;;;10.20;99.90;;;;;;4914823;29;20158;-85
2022/03/26 08:57:30;;;;;;;67.13;27.65;;;10.20;99.90;;;;;;4915274;29;20465;-83
2022/03/26 08:59:56;;;;;;;67.18;28.63;;;10.30;99.90;;;;;;4915277;29;20039;-83
2022/03/26 09:02:22;;;;;;;65.80;27.25;;;10.50;99.90;;;;;;4898319;29;20048;-84
2022/03/26 09:04:48;;;;;;;59.42;23.42;;;10.60;99.90;;;;;;4897375;29;20116;-84
2022/03/26 09:07:14;;;;;;;60.42;24.10;;;10.70;99.90;;;;;;4892482;29;20593;-84
2022/03/26 09:09:40;;;;;;;62.00;24.58;;;10.80;99.90;;;;;;4896053;29;20485;-83
2022/03/26 09:12:06;;;;;;;49.78;21.33;;;11.00;99.90;;;;;;4888883;29;20086;-84
2022/03/26 09:14:31;;;;;;;53.08;21.23;;;11.10;99.90;;;;;;4897931;29;20101;-83
2022/03/26 09:16:57;;;;;;;51.88;21.85;;;11.20;99.90;;;;;;4893223;29;20108;-84
2022/03/26 09:19:23;;;;;;;51.38;21.80;;;11.30;99.90;;;;;;4906419;29;20596;-83
2022/03/26 09:21:49;;;;;;;51.63;19.63;;;11.40;99.90;;;;;;4908334;29;20052;-83
2022/03/26 09:24:16;;;;;;;48.33;18.88;;;11.40;99.90;;;;;;4909497;29;20040;-84
2022/03/26 09:26:42;;;;;;;45.88;17.77;;;11.50;99.90;;;;;;4879658;29;20044;-84
2022/03/26 09:29:09;;;;;;;46.03;17.83;;;11.60;99.90;;;;;;4897754;29;20070;-84
2022/03/26 09:31:34;;;;;;;39.00;16.63;;;11.60;99.90;;;;;;4908935;29;20053;-84
2022/03/26 09:34:00;;;;;;;42.72;17.80;;;11.80;99.90;;;;;;4881659;29;20095;-84
2022/03/26 09:36:26;;;;;;;45.63;17.20;;;11.90;98.90;;;;;;4914089;29;20044;-84
2022/03/26 09:38:52;;;;;;;34.17;13.40;;;12.00;98.40;;;;;;4913515;29;20064;-84
2022/03/26 09:41:20;;;;;;;39.05;14.40;;;12.00;98.10;;;;;;4914721;29;20052;-84
2022/03/26 09:43:46;;;;;;;32.42;14.57;;;12.10;96.50;;;;;;4897730;29;20375;-83
2022/03/26 09:46:12;;;;;;;;;;;12.30;95.70;;;;;;4898188;29;20043;-84
2022/03/26 09:48:38;;;;;;;35.95;17.30;;;12.30;97.00;;;;;;4907077;29;19923;-83
2022/03/26 09:51:04;;;;;;;44.40;19.17;;;12.40;97.10;;;;;;4878265;29;20045;-84
2022/03/26 09:53:30;;;;;;;43.30;19.63;;;12.50;98.20;;;;;;4891819;29;20413;-85
2022/03/26 09:55:57;;;;;;;43.38;20.67;;;12.50;98.50;;;;;;4914128;29;20044;-85
2022/03/26 09:58:23;;;;;;;44.58;19.92;;;12.60;99.30;;;;;;4903367;29;20498;-86
2022/03/26 10:00:49;;;;;;;46.50;21.30;;;12.70;99.20;;;;;;4894381;29;20490;-78
2022/03/26 10:03:17;;;;;;;44.53;19.98;;;12.70;99.70;;;;;;4895261;29;20048;-84
2022/03/26 10:05:42;;;;;;;46.45;21.38;;;12.80;99.90;;;;;;4914803;29;20048;-84
2022/03/26 10:08:22;;;;;;;46.72;22.05;;;12.90;99.90;;;;;;4897726;29;20059;-84
2022/03/26 10:10:49;;;;;;;42.55;19.42;;;13.00;99.90;;;;;;4895653;29;20495;-85
2022/03/26 10:13:37;;;;;;;42.70;20.92;;;13.00;99.90;;;;;;4878901;29;20116;-84
2022/03/26 10:16:13;;;;;;;44.95;21.42;;;13.10;99.90;;;;;;4905376;29;20483;-84
2022/03/26 10:18:42;;;;;;;38.10;20.02;;;13.20;99.90;;;;;;4882723;29;20074;-84
2022/03/26 10:21:11;;;;;;;40.05;19.85;;;13.30;99.90;;;;;;4914119;29;20115;-84
2022/03/26 10:23:37;;;;;;;36.10;19.42;;;13.40;99.90;;;;;;4914478;29;20052;-84
2022/03/26 10:26:19;;;;;;;36.00;18.52;;;13.40;99.70;;;;;;4913581;29;20059;-85
2022/03/26 10:28:54;;;;;;;32.60;16.90;;;13.60;99.70;;;;;;4898085;29;20048;-84
2022/03/26 10:34:19;;;;;;;42.22;18.25;;;13.70;99.90;;;;;;4899279;29;20056;-85
2022/03/26 10:36:57;;;;;;;34.13;18.02;;;13.80;99.90;;;;;;4914293;29;20051;-84
2022/03/26 10:39:25;;;;;;;35.72;17.48;;;13.90;99.90;;;;;;4897721;29;20075;-85
2022/03/26 10:41:55;;;;;;;31.30;14.95;;;14.00;99.90;;;;;;4911442;29;20926;-85
2022/03/26 10:44:28;;;;;;;28.85;15.90;;;14.10;99.90;;;;;;4886795;29;20045;-87
2022/03/26 10:46:56;;;;;;;33.40;18.77;;;14.30;99.90;;;;;;4910302;29;20052;-83
2022/03/26 10:49:36;;;;;;;31.17;15.77;;;14.40;99.90;;;;;;4897261;29;20522;-83
2022/03/26 10:52:14;;;;;;;24.73;14.80;;;14.40;99.90;;;;;;4913305;29;20513;-82
2022/03/26 10:54:40;;;;;;;26.92;14.25;;;14.50;99.10;;;;;;4913701;29;20048;-83
2022/03/26 10:57:06;;;;;;;20.98;12.82;;;14.60;99.70;;;;;;4896497;29;20490;-83
2022/03/26 10:59:32;;;;;;;22.08;11.57;;;14.70;99.90;;;;;;4913797;29;20056;-83
2022/03/26 11:01:58;;;;;;;;;;;14.80;99.70;;;;;;4914223;29;20059;-83
2022/03/26 11:04:28;;;;;;;18.63;10.10;;;14.90;98.90;;;;;;4912974;29;19933;-83
2022/03/26 11:06:56;;;;;;;19.90;11.27;;;15.00;98.90;;;;;;4893261;29;20508;-83
2022/03/26 11:09:22;;;;;;;22.38;11.82;;;15.20;98.50;;;;;;4893644;29;20811;-84
2022/03/26 11:11:52;;;;;;;19.90;11.05;;;15.40;98.00;;;;;;4912479;29;20266;-84
2022/03/26 11:14:30;;;;;;;20.98;11.20;;;15.50;97.10;;;;;;4913220;29;20080;-84
2022/03/26 11:17:47;;;;;;;19.55;11.18;;;15.60;97.50;;;;;;4913575;29;20494;-83
2022/03/26 11:20:37;;;;;;;24.25;12.60;;;15.70;95.30;;;;;;4871366;29;20052;-83
2022/03/26 11:23:27;;;;;;;24.67;13.25;;;15.80;94.70;;;;;;4881376;29;20095;-84
2022/03/26 11:26:06;;;;;;;24.20;12.43;;;15.90;93.90;;;;;;4913333;29;20090;-84
2022/03/26 11:28:58;;;;;;;20.48;10.80;;;15.90;94.50;;;;;;4906227;29;20049;-83
2022/03/26 11:31:38;;;;;;;19.98;11.02;;;16.10;93.30;;;;;;4894356;29;20060;-84
2022/03/26 11:34:09;;;;;;;17.83;10.63;;;16.20;92.60;;;;;;4910550;29;20047;-86
2022/03/26 11:36:35;;;;;;;25.35;13.98;;;16.40;91.20;;;;;;4894173;29;20100;-83
2022/03/26 11:39:12;;;;;;;24.63;13.10;;;16.40;90.40;;;;;;4894255;29;20061;-89
2022/03/26 11:41:39;;;;;;;24.10;13.65;;;16.60;89.90;;;;;;4907691;29;20052;-83
2022/03/26 11:44:06;;;;;;;22.05;11.75;;;16.70;88.20;;;;;;4878283;29;20509;-83
2022/03/26 11:52:19;;;;;;;23.27;13.18;;;17.10;88.30;;;;;;4912485;29;20064;-83
2022/03/26 11:54:45;;;;;;;21.58;12.77;;;17.40;85.00;;;;;;4912236;29;20688;-82
2022/03/26 11:57:20;;;;;;;22.70;13.18;;;17.50;81.70;;;;;;4903102;29;20096;-82
2022/03/26 11:59:47;;;;;;;22.55;12.50;;;17.60;82.70;;;;;;4894552;29;20059;-82
2022/03/26 12:02:22;;;;;;;20.33;12.00;;;17.80;82.10;;;;;;4878361;29;20045;-81
2022/03/26 12:04:59;;;;;;;19.83;11.85;;;18.00;83.30;;;;;;4894152;29;20052;-82
2022/03/26 12:07:29;;;;;;;20.88;11.73;;;18.30;84.10;;;;;;4880710;29;20067;-81
2022/03/26 12:10:09;;;;;;;20.02;12.10;;;18.50;83.20;;;;;;4882571;29;20127;-82
2022/03/26 12:12:49;;;;;;;23.42;13.13;;;18.80;84.00;;;;;;4896949;29;20056;-82
2022/03/26 12:15:15;;;;;;;20.10;12.18;;;18.90;78.60;;;;;;4897386;29;20343;-83
2022/03/26 12:17:44;;;;;;;;;;;19.10;80.00;;;;;;4882475;29;20107;-82
2022/03/26 12:20:20;;;;;;;19.40;11.25;;;19.20;74.00;;;;;;4897327;29;19974;-83
2022/03/26 12:22:49;;;;;;;20.15;11.63;;;19.30;76.60;;;;;;4899761;29;20048;-82
2022/03/26 12:25:18;;;;;;;19.30;10.57;;;19.40;77.80;;;;;;4904428;29;20398;-81
2022/03/26 12:27:44;;;;;;;17.77;9.75;;;19.60;76.20;;;;;;4896494;29;20719;-83
2022/03/26 12:30:10;;;;;;;17.00;9.80;;;19.80;76.80;;;;;;4895108;29;20056;-82
2022/03/26 12:32:36;;;;;;;15.70;10.38;;;20.00;74.80;;;;;;4916114;29;20044;-82
2022/03/26 12:35:07;;;;;;;17.25;10.18;;;20.30;74.70;;;;;;4898157;29;20546;-82
2022/03/26 12:37:33;;;;;;;16.58;9.57;;;20.40;71.70;;;;;;4903284;29;20044;-83
2022/03/26 12:40:00;;;;;;;20.40;9.73;;;20.60;71.20;;;;;;4881867;29;20498;-83
2022/03/26 12:42:26;;;;;;;14.30;9.10;;;20.80;71.40;;;;;;4890871;29;20055;-83
2022/03/26 12:44:53;;;;;;;16.15;9.20;;;21.00;70.20;;;;;;4903927;29;20055;-82
2022/03/26 12:47:21;;;;;;;12.48;8.07;;;21.20;68.50;;;;;;4883768;29;20131;-83
2022/03/26 12:49:47;;;;;;;14.18;8.50;;;20.90;65.70;;;;;;4900138;29;20087;-83